Time;durP1;ratioP1;P1;durP2;ratioP2;P2;SDS_P1;SDS_P2;PMS_P1;PMS_P2;Temp;Humidity;BMP_temperature;BMP_pressure;BME280_temperature;BME280_humidity;BME280_pressure;Samples;Min_cycle;Max_cycle;Signal;HPM_P1;HPM_P2
2021/04/19 00:01:29;;;;;;;2.90;1.90;;;15.00;52.90;;;;;;5054912;28;20051;-82
2021/04/19 00:03:55;;;;;;;2.35;1.75;;;15.00;53.50;;;;;;5022439;28;20039;-85
2021/04/19 00:06:21;;;;;;;2.75;2.20;;;14.90;52.90;;;;;;5049005;28;20021;-83
2021/04/19 00:08:47;;;;;;;3.25;2.08;;;14.80;52.90;;;;;;5063475;28;20066;-83
2021/04/19 00:11:13;;;;;;;3.30;2.30;;;14.80;52.90;;;;;;5041956;28;20122;-82
2021/04/19 00:13:39;;;;;;;3.67;2.30;;;14.80;53.00;;;;;;5037977;28;20032;-85
2021/04/19 00:16:05;;;;;;;3.17;2.00;;;14.70;53.00;;;;;;5038795;28;20028;-83
2021/04/19 00:18:31;;;;;;;4.18;2.10;;;14.70;53.10;;;;;;5037644;28;20025;-83
2021/04/19 00:20:56;;;;;;;3.85;2.13;;;14.60;53.10;;;;;;5007888;28;20029;-83
2021/04/19 00:23:22;;;;;;;3.55;2.13;;;14.60;53.20;;;;;;5049029;28;20056;-82
2021/04/19 00:25:48;;;;;;;2.45;1.90;;;14.50;53.20;;;;;;5038307;28;20028;-83
2021/04/19 00:28:14;;;;;;;2.47;1.95;;;14.50;53.30;;;;;;5043030;28;20456;-82
2021/04/19 00:30:43;;;;;;;3.05;2.20;;;14.50;53.30;;;;;;5021564;28;20048;-83
2021/04/19 00:33:09;;;;;;;3.42;2.08;;;14.40;53.30;;;;;;5019152;28;20048;-84
2021/04/19 00:35:34;;;;;;;3.00;1.90;;;14.40;53.40;;;;;;5033826;28;20361;-83
2021/04/19 00:38:00;;;;;;;2.50;1.80;;;14.40;53.40;;;;;;5043360;28;20031;-83
2021/04/19 00:40:26;;;;;;;4.47;2.30;;;14.30;53.40;;;;;;5039492;28;20032;-84
2021/04/19 00:42:53;;;;;;;3.03;2.03;;;14.30;53.50;;;;;;5022166;28;20044;-81
2021/04/19 00:45:20;;;;;;;3.15;2.20;;;14.20;53.50;;;;;;5031241;28;20435;-83
2021/04/19 00:47:47;;;;;;;3.47;2.20;;;14.20;53.50;;;;;;5025263;28;20035;-83
2021/04/19 00:50:17;;;;;;;3.35;2.10;;;14.20;53.60;;;;;;5033914;28;20105;-84
2021/04/19 00:52:43;;;;;;;3.17;2.20;;;14.10;53.50;;;;;;5043794;28;20036;-81
2021/04/19 00:55:13;;;;;;;2.60;1.90;;;14.10;53.60;;;;;;5033983;28;20041;-83
2021/04/19 00:57:39;;;;;;;3.45;2.20;;;14.00;53.70;;;;;;5052252;28;20035;-83
2021/04/19 01:00:10;;;;;;;3.08;2.10;;;14.00;53.70;;;;;;5053620;28;20031;-83
2021/04/19 01:02:37;;;;;;;2.72;2.03;;;13.90;53.70;;;;;;5040152;28;20079;-83
2021/04/19 01:05:22;;;;;;;2.90;2.13;;;13.90;53.80;;;;;;5025700;28;20032;-82
2021/04/19 01:07:48;;;;;;;2.65;1.95;;;13.90;53.80;;;;;;5054248;28;20052;-83
2021/04/19 01:10:15;;;;;;;3.08;1.98;;;13.90;53.80;;;;;;5025894;28;20066;-83
2021/04/19 01:12:41;;;;;;;2.97;2.08;;;13.80;53.80;;;;;;5035123;28;20071;-82
2021/04/19 01:15:08;;;;;;;3.15;2.30;;;13.80;53.90;;;;;;5033522;28;20439;-83
2021/04/19 01:17:34;;;;;;;3.58;2.38;;;13.70;53.90;;;;;;5046473;28;20033;-83
2021/04/19 01:20:00;;;;;;;3.75;2.28;;;13.70;54.00;;;;;;5025027;28;20155;-87
2021/04/19 01:22:27;;;;;;;3.53;2.35;;;13.60;53.90;;;;;;5034797;28;20032;-82
2021/04/19 01:24:54;;;;;;;3.38;2.38;;;13.60;54.00;;;;;;5023535;28;20074;-83
2021/04/19 01:27:20;;;;;;;3.83;2.55;;;13.60;54.00;;;;;;5018399;28;20037;-82
2021/04/19 01:29:47;;;;;;;4.75;2.78;;;13.50;54.00;;;;;;5041497;28;20056;-84
2021/04/19 01:32:13;;;;;;;4.43;2.30;;;13.50;54.00;;;;;;5035332;28;20055;-83
2021/04/19 01:34:39;;;;;;;2.88;1.98;;;13.50;54.10;;;;;;5035061;28;20507;-83
2021/04/19 01:37:06;;;;;;;3.55;2.20;;;13.50;54.20;;;;;;5024135;28;20037;-83
2021/04/19 01:39:32;;;;;;;2.97;2.10;;;13.40;54.20;;;;;;5022102;28;20070;-82
2021/04/19 01:41:58;;;;;;;3.63;2.58;;;13.40;54.20;;;;;;5012021;28;20029;-82
2021/04/19 01:44:24;;;;;;;3.50;2.30;;;13.40;54.20;;;;;;5012542;28;20035;-83
2021/04/19 01:46:52;;;;;;;3.28;2.33;;;13.30;54.20;;;;;;5016393;28;20059;-83
2021/04/19 01:49:20;;;;;;;4.93;2.58;;;13.30;54.20;;;;;;5031974;28;20423;-83
2021/04/19 01:51:47;;;;;;;3.25;2.28;;;13.30;54.30;;;;;;5027323;28;20029;-83
2021/04/19 01:54:14;;;;;;;3.95;2.60;;;13.20;54.30;;;;;;5030129;28;20111;-83
2021/04/19 01:56:39;;;;;;;3.88;2.70;;;13.20;54.30;;;;;;5035230;28;20033;-83
2021/04/19 01:59:08;;;;;;;4.22;2.30;;;13.10;54.30;;;;;;5037115;28;20031;-83
2021/04/19 02:01:37;;;;;;;3.78;2.60;;;13.10;54.40;;;;;;5041399;28;20031;-83
2021/04/19 02:04:16;;;;;;;4.32;2.35;;;13.10;54.40;;;;;;5048231;28;20043;-86
2021/04/19 02:07:01;;;;;;;3.20;2.03;;;13.10;54.50;;;;;;5028997;28;20021;-83
2021/04/19 02:10:00;;;;;;;3.47;2.20;;;13.00;54.50;;;;;;5038056;28;20075;-85
2021/04/19 02:12:53;;;;;;;4.25;2.50;;;13.00;54.60;;;;;;5014896;28;20053;-83
2021/04/19 02:15:44;;;;;;;4.35;2.67;;;12.90;54.60;;;;;;5025344;28;20041;-83
2021/04/19 02:18:18;;;;;;;3.90;2.33;;;12.90;54.60;;;;;;5026986;28;20021;-82
2021/04/19 02:20:50;;;;;;;4.25;2.40;;;12.80;54.60;;;;;;5032239;28;20035;-83
2021/04/19 02:23:28;;;;;;;3.92;2.50;;;12.80;54.60;;;;;;5056052;28;20025;-86
2021/04/19 02:26:30;;;;;;;3.63;2.47;;;12.80;54.70;;;;;;5039977;28;20025;-82
2021/04/19 02:29:09;;;;;;;3.63;2.40;;;12.70;54.80;;;;;;5031172;28;20037;-83
2021/04/19 02:31:48;;;;;;;3.70;2.60;;;12.70;54.80;;;;;;5019864;28;20030;-83
2021/04/19 02:34:18;;;;;;;3.95;2.80;;;12.70;54.80;;;;;;5016032;28;20021;-83
2021/04/19 02:36:49;;;;;;;4.00;2.60;;;12.60;54.80;;;;;;5018116;28;20124;-84
2021/04/19 02:39:16;;;;;;;4.40;3.17;;;12.60;54.90;;;;;;5014957;28;20421;-89
2021/04/19 02:41:45;;;;;;;3.75;2.40;;;12.50;54.80;;;;;;5011318;28;20497;-82
2021/04/19 02:44:13;;;;;;;4.40;2.75;;;12.50;54.90;;;;;;5006683;28;20034;-82
2021/04/19 02:47:13;;;;;;;4.15;2.78;;;12.50;55.00;;;;;;4985455;28;20029;-83
2021/04/19 02:49:49;;;;;;;4.75;3.08;;;12.40;54.90;;;;;;5017055;28;20037;-82
2021/04/19 02:52:16;;;;;;;3.65;2.58;;;12.40;55.00;;;;;;5017875;28;20034;-83
2021/04/19 02:54:44;;;;;;;3.63;2.55;;;12.40;55.10;;;;;;5018199;28;20047;-82
2021/04/19 02:57:27;;;;;;;4.38;2.75;;;12.40;55.10;;;;;;5019637;28;20157;-85
2021/04/19 02:59:54;;;;;;;4.18;2.85;;;12.30;55.20;;;;;;5011804;28;20030;-83
2021/04/19 03:02:24;;;;;;;5.25;3.17;;;12.30;55.10;;;;;;5010877;28;20050;-82
2021/04/19 03:04:52;;;;;;;4.30;2.92;;;12.30;55.20;;;;;;5012217;28;20104;-83
2021/04/19 03:07:24;;;;;;;4.47;2.97;;;12.20;55.10;;;;;;5011188;28;20072;-83
2021/04/19 03:09:55;;;;;;;4.38;2.80;;;12.20;55.20;;;;;;5010607;28;20474;-81
2021/04/19 03:12:25;;;;;;;4.47;2.83;;;12.20;55.30;;;;;;5005993;28;20105;-84
2021/04/19 03:15:15;;;;;;;4.45;2.90;;;12.20;55.30;;;;;;4999969;28;20030;-83
2021/04/19 03:17:47;;;;;;;5.32;2.97;;;12.20;55.40;;;;;;5007910;28;20030;-82
2021/04/19 03:20:21;;;;;;;4.70;3.15;;;12.10;55.30;;;;;;5020199;28;20026;-84
2021/04/19 03:23:11;;;;;;;4.03;2.83;;;12.10;55.40;;;;;;5028478;28;20041;-82
2021/04/19 03:25:45;;;;;;;;;;;12.00;55.40;;;;;;5022234;28;20045;-82
2021/04/19 03:28:15;;;;;;;3.45;2.47;;;12.00;55.30;;;;;;5024055;28;20007;-83
2021/04/19 03:30:41;;;;;;;4.82;3.00;;;12.00;55.50;;;;;;5041556;28;20045;-82
2021/04/19 03:33:13;;;;;;;5.10;3.30;;;11.90;55.40;;;;;;5052835;28;20029;-86
2021/04/19 03:35:42;;;;;;;5.28;3.08;;;11.90;55.50;;;;;;5028026;28;20132;-82
2021/04/19 03:38:15;;;;;;;5.03;3.15;;;11.80;55.50;;;;;;5032288;28;20029;-83
2021/04/19 03:40:42;;;;;;;4.93;2.80;;;11.90;55.70;;;;;;5020549;28;20037;-83
2021/04/19 03:43:17;;;;;;;4.68;3.10;;;11.80;55.60;;;;;;5013156;28;20123;-82
2021/04/19 03:45:55;;;;;;;4.82;2.90;;;11.80;55.60;;;;;;5044476;28;20037;-83
2021/04/19 03:48:25;;;;;;;4.50;3.05;;;11.80;55.70;;;;;;5039495;28;20537;-83
2021/04/19 03:51:02;;;;;;;4.68;2.97;;;11.80;55.70;;;;;;5029407;28;20026;-82
2021/04/19 03:53:29;;;;;;;4.95;3.20;;;11.70;55.70;;;;;;5029345;28;20064;-82
2021/04/19 03:55:58;;;;;;;4.78;3.28;;;11.70;55.70;;;;;;5036802;28;20436;-82
2021/04/19 03:58:29;;;;;;;5.43;3.20;;;11.70;55.80;;;;;;5051249;28;20033;-82
2021/04/19 04:00:57;;;;;;;5.03;2.92;;;11.60;55.70;;;;;;5034316;28;20022;-83
2021/04/19 04:03:45;;;;;;;4.88;3.00;;;11.60;55.80;;;;;;5041173;28;20107;-82
2021/04/19 04:06:18;;;;;;;4.47;3.08;;;11.60;55.90;;;;;;5048989;28;20020;-83
2021/04/19 04:08:46;;;;;;;4.95;3.10;;;11.50;55.80;;;;;;5029675;28;20029;-83
2021/04/19 04:11:15;;;;;;;4.47;3.05;;;11.50;55.90;;;;;;5003097;28;20125;-88
2021/04/19 04:13:43;;;;;;;4.70;3.20;;;11.50;55.90;;;;;;4990794;28;20441;-82
2021/04/19 04:16:09;;;;;;;5.20;3.47;;;11.50;56.00;;;;;;5003555;28;20037;-82
2021/04/19 04:19:00;;;;;;;4.53;3.15;;;11.50;56.00;;;;;;5036178;28;20033;-82
2021/04/19 04:21:29;;;;;;;4.68;3.30;;;11.40;55.90;;;;;;5019945;28;20565;-82
2021/04/19 04:24:01;;;;;;;5.70;3.65;;;11.40;56.00;;;;;;5032984;28;20051;-82
2021/04/19 04:26:29;;;;;;;3.88;2.72;;;11.40;56.00;;;;;;5029327;28;20037;-83
2021/04/19 04:28:55;;;;;;;5.65;3.30;;;11.40;56.10;;;;;;5027083;28;20080;-82
2021/04/19 04:31:27;;;;;;;6.43;3.60;;;11.30;56.10;;;;;;5044405;28;20025;-82
2021/04/19 04:33:59;;;;;;;5.07;2.83;;;11.30;56.10;;;;;;4998012;28;20041;-82
2021/04/19 04:36:25;;;;;;;5.85;3.55;;;11.30;56.20;;;;;;4995349;28;20029;-82
2021/04/19 04:38:55;;;;;;;4.28;3.33;;;11.30;56.20;;;;;;4986412;28;20168;-83
2021/04/19 04:41:33;;;;;;;4.72;3.30;;;11.30;56.30;;;;;;5017785;28;20340;-82
2021/04/19 04:44:02;;;;;;;5.45;3.50;;;11.30;56.90;;;;;;5011280;28;20052;-83
2021/04/19 04:46:40;;;;;;;5.18;3.55;;;11.20;56.30;;;;;;5022031;28;20033;-81
2021/04/19 04:49:13;;;;;;;5.38;3.28;;;11.20;56.40;;;;;;5015117;28;20539;-81
2021/04/19 04:51:42;;;;;;;4.70;3.10;;;11.20;56.40;;;;;;5031782;28;20032;-80
2021/04/19 04:54:12;;;;;;;4.50;3.42;;;11.20;56.40;;;;;;5022982;28;20058;-81
2021/04/19 04:56:42;;;;;;;5.35;3.58;;;11.20;56.50;;;;;;5031975;28;20107;-83
2021/04/19 04:59:09;;;;;;;5.22;3.28;;;11.20;56.50;;;;;;5024755;28;20022;-84
2021/04/19 05:01:35;;;;;;;5.63;3.85;;;11.10;56.50;;;;;;5016790;28;20033;-83
2021/04/19 05:04:03;;;;;;;4.93;3.53;;;11.10;56.50;;;;;;5031773;28;20402;-84
2021/04/19 05:06:30;;;;;;;5.47;3.65;;;11.10;56.60;;;;;;5044960;28;20080;-84
2021/04/19 05:08:57;;;;;;;5.32;3.40;;;11.10;56.60;;;;;;5019380;28;20101;-85
2021/04/19 05:11:23;;;;;;;5.70;3.92;;;11.10;56.60;;;;;;5026679;28;20037;-83
2021/04/19 05:13:49;;;;;;;5.70;3.70;;;11.10;56.70;;;;;;4980849;28;20394;-85
2021/04/19 05:16:28;;;;;;;6.30;3.88;;;11.10;56.80;;;;;;5044118;28;20478;-83
2021/04/19 05:18:56;;;;;;;5.00;3.30;;;11.10;56.90;;;;;;5029805;28;20033;-83
2021/04/19 05:21:22;;;;;;;5.78;3.88;;;11.10;56.80;;;;;;5029625;28;20057;-83
2021/04/19 05:23:47;;;;;;;6.15;4.07;;;11.00;56.80;;;;;;5001791;28;20065;-83
2021/04/19 05:26:14;;;;;;;5.45;4.05;;;11.00;56.80;;;;;;5025016;28;20034;-81
2021/04/19 05:28:41;;;;;;;5.53;4.15;;;11.00;56.90;;;;;;4995966;28;20053;-81
2021/04/19 05:31:11;;;;;;;6.25;4.22;;;11.00;57.00;;;;;;5009676;28;20528;-82
2021/04/19 05:33:37;;;;;;;5.07;3.67;;;11.00;57.00;;;;;;5015535;28;20025;-82
2021/04/19 05:36:13;;;;;;;6.20;4.15;;;11.00;57.00;;;;;;5009045;28;20026;-80
2021/04/19 05:38:43;;;;;;;5.28;3.83;;;11.00;57.20;;;;;;4999031;28;20570;-86
2021/04/19 05:41:14;;;;;;;5.90;3.83;;;11.00;57.10;;;;;;5001206;28;20014;-83
2021/04/19 05:43:44;;;;;;;6.43;4.22;;;11.00;57.10;;;;;;5011147;28;20394;-81
2021/04/19 05:46:16;;;;;;;7.22;3.97;;;11.00;57.20;;;;;;5014091;28;20029;-82
2021/04/19 05:48:42;;;;;;;5.60;3.45;;;11.00;57.20;;;;;;5011605;28;20037;-81
2021/04/19 05:51:23;;;;;;;5.75;3.65;;;11.00;57.20;;;;;;5010766;28;20026;-81
2021/04/19 05:53:52;;;;;;;6.30;4.18;;;11.00;57.40;;;;;;5017101;28;20095;-82
2021/04/19 05:56:32;;;;;;;6.68;4.35;;;11.00;58.00;;;;;;5011832;28;20072;-82
2021/04/19 05:59:09;;;;;;;6.28;4.25;;;10.90;57.30;;;;;;5013484;28;20029;-83
2021/04/19 06:01:38;;;;;;;6.68;4.00;;;10.90;57.30;;;;;;5030141;28;20068;-82
2021/04/19 06:04:21;;;;;;;7.05;4.05;;;10.90;57.30;;;;;;5031503;28;20030;-82
2021/04/19 06:06:58;;;;;;;6.55;4.18;;;10.90;57.50;;;;;;4996282;28;20018;-83
2021/04/19 06:09:40;;;;;;;5.90;3.92;;;10.90;57.50;;;;;;5012137;28;20034;-85
2021/04/19 06:12:44;;;;;;;5.72;4.07;;;10.90;57.50;;;;;;4979538;28;20038;-84
2021/04/19 06:15:13;;;;;;;6.75;4.50;;;10.90;57.60;;;;;;5013379;28;20462;-85
2021/04/19 06:17:45;;;;;;;5.30;3.65;;;10.90;57.60;;;;;;4995267;28;20414;-84
2021/04/19 06:20:17;;;;;;;6.68;4.38;;;10.90;57.70;;;;;;5026299;28;20462;-84
2021/04/19 06:22:44;;;;;;;6.53;4.13;;;10.90;57.70;;;;;;5029028;28;20064;-84
2021/04/19 06:25:12;;;;;;;7.05;4.18;;;10.90;57.70;;;;;;5013835;28;20478;-87
2021/04/19 06:27:38;;;;;;;6.10;4.35;;;10.90;57.80;;;;;;5000374;28;20026;-88
2021/04/19 06:30:16;;;;;;;6.25;4.32;;;10.90;57.80;;;;;;5026851;28;20389;-85
2021/04/19 06:32:44;;;;;;;5.85;4.32;;;10.80;57.90;;;;;;5033200;28;20045;-84
2021/04/19 06:35:15;;;;;;;6.40;4.55;;;10.90;57.90;;;;;;5010121;28;20025;-85
2021/04/19 06:37:42;;;;;;;5.60;3.65;;;10.90;58.00;;;;;;5054456;28;20078;-83
2021/04/19 06:40:09;;;;;;;6.05;4.00;;;10.80;58.00;;;;;;5038056;28;20021;-84
2021/04/19 06:42:35;;;;;;;6.82;4.85;;;10.90;58.20;;;;;;5045187;28;20025;-84
2021/04/19 06:45:05;;;;;;;5.68;3.88;;;10.90;58.20;;;;;;5052592;28;20032;-83
2021/04/19 06:47:35;;;;;;;7.28;4.95;;;10.90;58.20;;;;;;5023458;28;20017;-84
2021/04/19 06:50:03;;;;;;;6.63;4.63;;;10.90;58.30;;;;;;5052242;28;20075;-84
2021/04/19 06:52:30;;;;;;;6.43;4.00;;;10.90;58.30;;;;;;5036216;28;20040;-82
2021/04/19 06:54:56;;;;;;;6.60;4.50;;;10.90;58.30;;;;;;5037918;28;20028;-81
2021/04/19 06:57:23;;;;;;;6.45;4.32;;;10.90;58.30;;;;;;5021208;28;20362;-82
2021/04/19 06:59:49;;;;;;;6.38;4.50;;;10.90;58.30;;;;;;5052533;28;20039;-81
2021/04/19 07:02:25;;;;;;;7.15;4.85;;;10.90;58.30;;;;;;5057509;28;20025;-81
2021/04/19 07:04:52;;;;;;;5.50;3.97;;;10.90;58.40;;;;;;5043583;28;20513;-83
2021/04/19 07:07:35;;;;;;;5.85;4.30;;;10.90;58.40;;;;;;5051660;28;20024;-83
2021/04/19 07:10:05;;;;;;;6.47;4.35;;;10.90;58.50;;;;;;5053429;28;20020;-83
2021/04/19 07:12:35;;;;;;;6.47;4.63;;;10.90;58.40;;;;;;5049566;28;20033;-84
2021/04/19 07:15:04;;;;;;;6.20;4.10;;;10.90;58.40;;;;;;5039692;28;20033;-83
2021/04/19 07:17:31;;;;;;;7.38;4.78;;;10.90;58.40;;;;;;5027274;28;20115;-85
2021/04/19 07:19:57;;;;;;;6.90;5.05;;;10.90;58.50;;;;;;5042170;28;20111;-83
2021/04/19 07:22:23;;;;;;;7.53;5.00;;;10.90;58.50;;;;;;5040546;28;20063;-86
2021/04/19 07:24:49;;;;;;;5.97;4.30;;;10.90;58.60;;;;;;5033408;28;20029;-86
2021/04/19 07:27:16;;;;;;;6.00;4.50;;;10.90;58.60;;;;;;5041251;28;20489;-86
2021/04/19 07:29:43;;;;;;;6.47;4.82;;;10.90;58.70;;;;;;5038613;28;20064;-84
2021/04/19 07:32:11;;;;;;;5.97;4.60;;;10.90;58.70;;;;;;5040437;28;20037;-86
2021/04/19 07:34:37;;;;;;;5.95;4.32;;;10.90;58.70;;;;;;5058926;28;20063;-86
2021/04/19 07:37:05;;;;;;;8.13;5.03;;;11.00;58.80;;;;;;5058266;28;20031;-86
2021/04/19 07:39:34;;;;;;;6.53;4.78;;;11.00;58.80;;;;;;5058236;28;20028;-94
2021/04/19 07:42:02;;;;;;;7.05;4.93;;;11.00;58.80;;;;;;5056028;28;20025;-86
2021/04/19 07:44:49;;;;;;;6.07;4.63;;;11.00;58.80;;;;;;5026404;28;20504;-85
2021/04/19 07:47:23;;;;;;;7.32;4.95;;;11.00;59.00;;;;;;5041334;28;20029;-86
2021/04/19 07:49:57;;;;;;;6.03;4.30;;;11.00;59.00;;;;;;5060360;28;20499;-87
2021/04/19 07:52:24;;;;;;;6.07;4.45;;;11.00;59.10;;;;;;5057326;28;20035;-87
2021/04/19 07:55:05;;;;;;;6.07;4.20;;;11.10;59.10;;;;;;5057601;28;20028;-89
2021/04/19 07:57:31;;;;;;;7.35;4.82;;;11.10;59.30;;;;;;5041492;28;20082;-86
2021/04/19 07:59:57;;;;;;;6.47;4.45;;;11.20;59.20;;;;;;5053078;28;20037;-86
2021/04/19 08:02:23;;;;;;;7.57;5.00;;;11.20;59.30;;;;;;5022970;28;20036;-85
2021/04/19 08:04:51;;;;;;;6.40;4.78;;;11.20;59.40;;;;;;5036759;28;20025;-88
2021/04/19 08:07:22;;;;;;;7.05;5.18;;;11.20;60.10;;;;;;5048983;28;20025;-85
2021/04/19 08:10:20;;;;;;;7.18;5.15;;;11.20;59.50;;;;;;5041634;28;20115;-87
2021/04/19 08:12:46;;;;;;;6.18;4.70;;;11.30;59.70;;;;;;5026154;28;20473;-88
2021/04/19 08:15:23;;;;;;;7.10;4.97;;;11.30;59.50;;;;;;5041563;28;20162;-87
2021/04/19 08:17:58;;;;;;;6.18;4.07;;;11.40;59.70;;;;;;5030459;28;20574;-87
2021/04/19 08:20:50;;;;;;;5.75;4.53;;;11.40;59.60;;;;;;5093836;27;20621;-87
2021/04/19 08:23:18;;;;;;;7.20;5.07;;;11.50;59.70;;;;;;5063015;28;20047;-85
2021/04/19 08:25:46;;;;;;;6.25;4.30;;;11.50;59.70;;;;;;5050541;28;20473;-88
2021/04/19 08:28:19;;;;;;;6.45;4.70;;;11.50;60.30;;;;;;5062145;28;20029;-86
2021/04/19 08:30:47;;;;;;;6.38;4.68;;;11.60;59.70;;;;;;5052246;28;20024;-83
2021/04/19 08:33:13;;;;;;;6.38;4.50;;;11.60;59.70;;;;;;5052306;28;20025;-85
2021/04/19 08:35:43;;;;;;;6.57;5.05;;;11.60;59.60;;;;;;5066611;28;20032;-87
2021/04/19 08:38:09;;;;;;;5.72;4.30;;;11.70;59.70;;;;;;5043104;28;20051;-82
2021/04/19 08:40:38;;;;;;;6.15;4.80;;;11.70;59.60;;;;;;5059225;28;20021;-83
2021/04/19 08:43:24;;;;;;;6.78;5.03;;;11.80;59.70;;;;;;5088757;28;20073;-83
2021/04/19 08:45:51;;;;;;;7.28;4.65;;;11.80;59.80;;;;;;5054526;28;20036;-83
2021/04/19 08:48:17;;;;;;;6.80;4.72;;;11.80;59.60;;;;;;5041788;28;20031;-83
2021/04/19 08:50:46;;;;;;;5.88;4.25;;;11.90;59.70;;;;;;5042274;28;20025;-83
2021/04/19 08:53:14;;;;;;;6.72;4.75;;;11.90;59.70;;;;;;5070952;28;20032;-82
2021/04/19 08:55:42;;;;;;;6.30;4.60;;;12.00;59.80;;;;;;5088393;28;20036;-82
2021/04/19 08:58:09;;;;;;;5.80;4.57;;;12.00;59.80;;;;;;5054909;28;20040;-83
2021/04/19 09:00:41;;;;;;;6.57;4.72;;;12.00;59.80;;;;;;5048559;28;20117;-83
2021/04/19 09:03:08;;;;;;;6.32;4.57;;;12.10;59.90;;;;;;5041127;28;20028;-83
2021/04/19 09:05:34;;;;;;;6.32;4.72;;;12.10;59.80;;;;;;5055071;28;20024;-82
2021/04/19 09:08:03;;;;;;;6.05;4.97;;;12.20;59.80;;;;;;5074957;28;20032;-82
2021/04/19 09:10:47;;;;;;;6.20;4.72;;;12.20;59.80;;;;;;5035032;28;20028;-82
2021/04/19 09:13:34;;;;;;;6.65;4.57;;;12.20;59.90;;;;;;5065276;28;20050;-83
2021/04/19 09:16:20;;;;;;;6.40;4.60;;;12.30;59.90;;;;;;5053685;28;20111;-83
2021/04/19 09:19:00;;;;;;;6.22;4.68;;;12.30;59.90;;;;;;5048045;28;20155;-83
2021/04/19 09:21:50;;;;;;;6.35;4.57;;;12.40;59.90;;;;;;5077326;28;20047;-85
2021/04/19 09:24:18;;;;;;;6.40;4.28;;;12.40;59.90;;;;;;5067350;28;20021;-83
2021/04/19 09:26:49;;;;;;;5.90;4.75;;;12.40;59.70;;;;;;5066921;28;20359;-82
2021/04/19 09:29:24;;;;;;;8.50;4.85;;;12.50;59.80;;;;;;5065605;28;20381;-83
2021/04/19 09:32:02;;;;;;;5.32;4.15;;;12.50;59.80;;;;;;5055176;28;20037;-82
2021/04/19 09:34:37;;;;;;;6.38;4.70;;;12.60;59.70;;;;;;5056637;28;20468;-82
2021/04/19 09:37:03;;;;;;;5.65;4.07;;;12.60;59.70;;;;;;5061846;28;20025;-82
2021/04/19 09:40:02;;;;;;;5.70;4.20;;;12.70;59.70;;;;;;5055605;28;20440;-82
2021/04/19 09:43:04;;;;;;;5.70;4.03;;;12.70;59.70;;;;;;5048936;28;20025;-82
2021/04/19 09:45:44;;;;;;;5.28;3.92;;;12.80;59.70;;;;;;5060340;28;20429;-81
2021/04/19 09:48:28;;;;;;;5.38;3.88;;;12.80;59.60;;;;;;5047580;28;20102;-79
2021/04/19 09:50:59;;;;;;;5.47;4.03;;;12.90;59.70;;;;;;5042372;28;20029;-80
2021/04/19 09:53:26;;;;;;;6.97;4.20;;;13.00;59.60;;;;;;5053762;28;20021;-80
2021/04/19 09:55:53;;;;;;;5.72;4.20;;;13.00;59.60;;;;;;5053551;28;20021;-84
2021/04/19 09:58:19;;;;;;;5.45;4.07;;;13.10;60.20;;;;;;5047934;28;20037;-85
2021/04/19 10:00:52;;;;;;;5.97;4.10;;;13.20;59.60;;;;;;5040240;28;20469;-83
2021/04/19 10:03:19;;;;;;;6.25;4.57;;;13.20;59.50;;;;;;5037710;28;20389;-81
2021/04/19 10:05:45;;;;;;;6.07;4.25;;;13.30;59.50;;;;;;5053579;28;20033;-81
2021/04/19 10:08:13;;;;;;;5.38;4.28;;;13.30;59.40;;;;;;5062660;28;20025;-83
2021/04/19 10:10:41;;;;;;;5.18;3.63;;;13.40;59.40;;;;;;5067154;28;20032;-83
2021/04/19 10:13:07;;;;;;;6.00;4.47;;;13.50;59.30;;;;;;5030915;28;20079;-84
2021/04/19 10:15:32;;;;;;;5.45;4.03;;;13.50;59.20;;;;;;5054484;28;20021;-84
2021/04/19 10:18:10;;;;;;;5.45;3.78;;;13.60;59.10;;;;;;5042063;28;20045;-82
2021/04/19 10:20:38;;;;;;;5.45;3.97;;;13.70;59.20;;;;;;5047106;28;21466;-83
2021/04/19 10:23:12;;;;;;;5.07;3.78;;;13.80;59.10;;;;;;5052073;28;20119;-83
2021/04/19 10:25:51;;;;;;;4.85;3.55;;;13.80;59.00;;;;;;5056995;28;20472;-83
2021/04/19 10:28:34;;;;;;;5.65;3.72;;;13.90;59.00;;;;;;5038637;28;20035;-82
2021/04/19 10:31:15;;;;;;;4.72;3.45;;;14.00;58.90;;;;;;5054436;28;20025;-79
2021/04/19 10:33:43;;;;;;;4.85;3.85;;;14.00;58.70;;;;;;5053037;28;20103;-79
2021/04/19 10:36:26;;;;;;;5.68;3.63;;;14.10;58.70;;;;;;5037082;28;20446;-79
2021/04/19 10:38:54;;;;;;;5.20;3.80;;;14.10;58.70;;;;;;5065941;28;20033;-81
2021/04/19 10:41:34;;;;;;;5.32;3.97;;;14.20;58.70;;;;;;5073043;28;20086;-79
2021/04/19 10:44:01;;;;;;;5.82;4.05;;;14.30;58.70;;;;;;5038362;28;20039;-81
2021/04/19 10:46:31;;;;;;;5.00;3.75;;;14.30;58.60;;;;;;5053074;28;20021;-82
2021/04/19 10:49:00;;;;;;;5.40;3.97;;;14.40;58.60;;;;;;5054472;28;20075;-81
2021/04/19 10:51:28;;;;;;;5.57;4.18;;;14.40;58.50;;;;;;5051981;28;20036;-90
2021/04/19 10:53:56;;;;;;;5.18;3.75;;;14.50;58.50;;;;;;5066899;28;20025;-80
2021/04/19 10:56:24;;;;;;;5.72;4.22;;;14.60;58.50;;;;;;5052493;28;20027;-86
2021/04/19 10:58:58;;;;;;;5.05;3.92;;;14.60;58.50;;;;;;5033372;28;20079;-80
2021/04/19 11:01:28;;;;;;;4.72;3.40;;;14.70;58.40;;;;;;5066993;28;20052;-83
2021/04/19 11:03:54;;;;;;;5.50;3.83;;;14.80;58.40;;;;;;5058203;28;20045;-83
2021/04/19 11:06:20;;;;;;;5.28;4.15;;;14.80;58.30;;;;;;5053971;28;20059;-80
2021/04/19 11:08:52;;;;;;;5.45;3.72;;;14.90;58.30;;;;;;5060223;28;20033;-80
2021/04/19 11:11:36;;;;;;;5.22;4.00;;;14.90;58.20;;;;;;5043384;28;20035;-80
2021/04/19 11:14:33;;;;;;;5.00;3.85;;;15.00;58.30;;;;;;5067161;28;20453;-80
2021/04/19 11:17:07;;;;;;;4.95;3.58;;;15.10;58.20;;;;;;5053235;28;20025;-80
2021/04/19 11:19:43;;;;;;;5.32;3.90;;;15.20;58.10;;;;;;5054077;28;20049;-79
2021/04/19 11:22:33;;;;;;;4.40;3.50;;;15.20;58.00;;;;;;5053588;28;20036;-79
2021/04/19 11:25:24;;;;;;;4.85;3.63;;;15.30;58.20;;;;;;5057246;28;20033;-80
2021/04/19 11:27:53;;;;;;;4.50;3.42;;;15.30;58.10;;;;;;5039439;28;20029;-80
2021/04/19 11:30:20;;;;;;;4.63;3.40;;;15.40;58.00;;;;;;5037040;28;20029;-80
2021/04/19 11:32:46;;;;;;;4.65;3.42;;;15.50;58.00;;;;;;5069280;28;20033;-80
2021/04/19 11:35:26;;;;;;;4.72;3.55;;;15.50;58.00;;;;;;5051880;28;20025;-80
2021/04/19 11:37:59;;;;;;;4.85;3.50;;;15.60;58.10;;;;;;5036692;28;20435;-81
2021/04/19 11:40:32;;;;;;;4.57;3.42;;;15.60;58.00;;;;;;5068757;28;20123;-80
2021/04/19 11:43:27;;;;;;;4.50;3.17;;;15.70;58.00;;;;;;5052429;28;20056;-80
2021/04/19 11:46:10;;;;;;;5.37;3.90;;;15.80;58.10;;;;;;5045399;28;20025;-84
2021/04/19 11:48:38;;;;;;;4.68;3.47;;;15.90;57.90;;;;;;5071099;28;20549;-81
2021/04/19 11:51:14;;;;;;;4.00;3.28;;;15.90;57.70;;;;;;5033668;28;20079;-81
2021/04/19 11:53:46;;;;;;;4.57;3.38;;;16.00;57.80;;;;;;5037531;28;20067;-80
2021/04/19 11:56:13;;;;;;;4.72;3.53;;;16.10;57.80;;;;;;5062419;28;20059;-81
2021/04/19 11:58:42;;;;;;;4.85;3.45;;;16.10;57.70;;;;;;5035517;28;20039;-80
2021/04/19 12:01:10;;;;;;;4.18;3.20;;;16.20;57.70;;;;;;5046193;28;20052;-79
2021/04/19 12:03:41;;;;;;;4.80;3.40;;;16.30;58.30;;;;;;5037315;28;20083;-81
2021/04/19 12:06:09;;;;;;;3.90;3.15;;;16.30;57.70;;;;;;5044925;28;20021;-81
2021/04/19 12:08:35;;;;;;;4.45;3.30;;;16.40;57.70;;;;;;5051312;28;20075;-82
2021/04/19 12:11:02;;;;;;;4.35;3.05;;;16.40;57.60;;;;;;5041887;28;20070;-81
2021/04/19 12:13:29;;;;;;;5.18;3.42;;;16.50;57.60;;;;;;5050665;28;20036;-82
2021/04/19 12:15:55;;;;;;;4.57;3.42;;;16.50;57.60;;;;;;5047663;28;20151;-81
2021/04/19 12:18:24;;;;;;;5.15;3.42;;;16.50;57.60;;;;;;5037971;28;20119;-80
2021/04/19 12:20:51;;;;;;;3.75;2.92;;;16.50;57.60;;;;;;5041178;28;20135;-81
2021/04/19 12:23:24;;;;;;;4.50;3.10;;;16.60;57.60;;;;;;5053177;28;20590;-80
2021/04/19 12:25:53;;;;;;;4.32;3.13;;;16.60;57.60;;;;;;5017897;28;20039;-79
2021/04/19 12:28:29;;;;;;;4.30;2.92;;;16.60;57.60;;;;;;5062235;28;20032;-81
2021/04/19 12:30:56;;;;;;;4.35;3.08;;;16.60;57.60;;;;;;5046855;28;20017;-80
2021/04/19 12:33:31;;;;;;;3.92;3.13;;;16.70;57.60;;;;;;5047411;28;20024;-80
2021/04/19 12:35:58;;;;;;;3.88;2.88;;;16.70;57.60;;;;;;5052331;28;20032;-83
2021/04/19 12:38:23;;;;;;;4.03;3.17;;;16.70;57.70;;;;;;5034473;28;20179;-79
2021/04/19 12:40:51;;;;;;;4.50;3.50;;;16.80;57.70;;;;;;5047500;28;20025;-81
2021/04/19 12:43:18;;;;;;;4.05;2.85;;;16.70;57.60;;;;;;5026518;28;20021;-80
2021/04/19 12:45:44;;;;;;;3.97;3.03;;;16.80;57.70;;;;;;5036090;28;20367;-82
2021/04/19 12:48:11;;;;;;;4.78;3.17;;;16.80;57.70;;;;;;5053723;28;20055;-81
2021/04/19 12:50:38;;;;;;;3.97;3.03;;;16.80;57.70;;;;;;5052082;28;20048;-81
2021/04/19 12:53:06;;;;;;;4.35;3.25;;;16.80;57.70;;;;;;5052526;28;20068;-80
2021/04/19 12:55:32;;;;;;;4.40;3.33;;;16.80;57.70;;;;;;5054187;28;20031;-81
2021/04/19 12:58:01;;;;;;;4.57;3.17;;;16.90;57.80;;;;;;5051356;28;20035;-81
2021/04/19 13:00:27;;;;;;;3.67;3.00;;;16.90;57.80;;;;;;5042982;28;20036;-81
2021/04/19 13:02:54;;;;;;;3.83;3.00;;;16.90;57.70;;;;;;5053236;28;20028;-81
2021/04/19 13:05:20;;;;;;;4.18;3.05;;;16.90;57.70;;;;;;5055750;28;20416;-81
2021/04/19 13:07:58;;;;;;;4.43;3.08;;;16.90;57.70;;;;;;5049684;28;20029;-81
2021/04/19 13:10:24;;;;;;;4.43;3.38;;;16.90;57.70;;;;;;5057493;28;20078;-81